Time;durP1;ratioP1;P1;durP2;ratioP2;P2;SDS_P1;SDS_P2;PMS_P1;PMS_P2;Temp;Humidity;BMP_temperature;BMP_pressure;BME280_temperature;BME280_humidity;BME280_pressure;Samples;Min_cycle;Max_cycle;Signal;HPM_P1;HPM_P2
2022/05/23 00:00:57;;;;;;;7.18;2.00;;;;;;;;;;5013789;28;20207;-62
2022/05/23 00:03:22;;;;;;;4.68;1.70;;;;;;;;;;5025473;28;20223;-62
2022/05/23 00:05:48;;;;;;;7.78;2.00;;;;;;;;;;5021952;28;20236;-62
2022/05/23 00:08:13;;;;;;;6.85;1.88;;;;;;;;;;5020433;28;20674;-62
2022/05/23 00:10:38;;;;;;;9.02;2.25;;;;;;;;;;5022492;28;20247;-62
2022/05/23 00:13:04;;;;;;;6.47;2.10;;;;;;;;;;5021754;28;20207;-62
2022/05/23 00:15:29;;;;;;;5.60;1.90;;;;;;;;;;5028608;28;20836;-62
2022/05/23 00:17:55;;;;;;;7.57;2.03;;;;;;;;;;5021648;28;20772;-62
2022/05/23 00:20:22;;;;;;;5.63;1.95;;;;;;;;;;5023626;28;20606;-62
2022/05/23 00:22:47;;;;;;;6.93;1.77;;;;;;;;;;5029896;28;20241;-62
2022/05/23 00:25:12;;;;;;;6.93;2.30;;;;;;;;;;5013715;28;20698;-62
2022/05/23 00:27:39;;;;;;;7.88;1.92;;;;;;;;;;5019235;28;20682;-62
2022/05/23 00:30:06;;;;;;;7.97;1.92;;;;;;;;;;5024112;28;20212;-62
2022/05/23 00:35:21;;;;;;;6.78;1.98;;;;;;;;;;5025042;28;20238;-62
2022/05/23 00:37:47;;;;;;;6.50;1.90;;;;;;;;;;5026035;28;20227;-62
2022/05/23 00:40:22;;;;;;;5.68;2.15;;;;;;;;;;5024923;28;20578;-62
2022/05/23 00:45:31;;;;;;;7.20;2.10;;;;;;;;;;5018028;28;20325;-62
2022/05/23 00:47:56;;;;;;;8.05;2.00;;;;;;;;;;5017733;28;20718;-62
2022/05/23 00:50:22;;;;;;;8.45;2.15;;;;;;;;;;5022375;28;20215;-62
2022/05/23 00:52:51;;;;;;;4.90;1.90;;;;;;;;;;5025359;28;20218;-62
2022/05/23 00:55:19;;;;;;;5.55;1.92;;;;;;;;;;5030501;28;20226;-62
2022/05/23 00:57:45;;;;;;;7.60;2.00;;;;;;;;;;5013078;28;20717;-62
2022/05/23 01:00:11;;;;;;;8.48;2.55;;;;;;;;;;5007347;28;20246;-63
2022/05/23 01:02:36;;;;;;;9.55;2.20;;;;;;;;;;5025297;28;20299;-62
2022/05/23 01:05:03;;;;;;;6.53;2.50;;;;;;;;;;4999448;28;20636;-63
2022/05/23 01:07:28;;;;;;;6.95;2.10;;;;;;;;;;4998672;28;20212;-62
2022/05/23 01:09:53;;;;;;;6.07;2.10;;;;;;;;;;4996413;28;20249;-62
2022/05/23 01:12:19;;;;;;;7.70;2.20;;;;;;;;;;5000823;28;20698;-62
2022/05/23 01:14:45;;;;;;;5.88;2.10;;;;;;;;;;5006073;28;20251;-62
2022/05/23 01:17:10;;;;;;;7.03;2.35;;;;;;;;;;5011635;28;20239;-62
2022/05/23 01:19:35;;;;;;;7.03;2.13;;;;;;;;;;5005018;28;20220;-62
2022/05/23 01:22:03;;;;;;;6.93;2.40;;;;;;;;;;5004879;28;20222;-62
2022/05/23 01:24:42;;;;;;;7.50;2.50;;;;;;;;;;5004434;28;20208;-62
2022/05/23 01:27:07;;;;;;;7.28;2.50;;;;;;;;;;5004419;28;20327;-62
2022/05/23 01:29:33;;;;;;;5.85;2.42;;;;;;;;;;4998000;28;20216;-62
2022/05/23 01:31:59;;;;;;;7.13;2.38;;;;;;;;;;5011709;28;20204;-62
2022/05/23 01:34:25;;;;;;;6.80;2.20;;;;;;;;;;4999553;28;20216;-62
2022/05/23 01:36:50;;;;;;;6.70;2.22;;;;;;;;;;5005525;28;20535;-62
2022/05/23 01:39:16;;;;;;;6.10;2.20;;;;;;;;;;5003598;28;20232;-62
2022/05/23 01:41:41;;;;;;;6.32;2.13;;;;;;;;;;5022615;28;21574;-62
2022/05/23 01:44:06;;;;;;;7.38;2.10;;;;;;;;;;5011373;28;20207;-62
2022/05/23 01:46:31;;;;;;;5.47;2.20;;;;;;;;;;5004322;28;20231;-62
2022/05/23 01:48:57;;;;;;;9.00;2.55;;;;;;;;;;5004945;28;20688;-62
2022/05/23 01:51:22;;;;;;;6.05;1.88;;;;;;;;;;4997040;28;20219;-62
2022/05/23 01:53:47;;;;;;;8.13;2.03;;;;;;;;;;5008062;28;20808;-61
2022/05/23 01:56:13;;;;;;;4.75;2.08;;;;;;;;;;4996903;28;20789;-62
2022/05/23 02:01:30;;;;;;;10.32;2.47;;;;;;;;;;5004490;28;20596;-62
2022/05/23 02:03:56;;;;;;;4.63;1.75;;;;;;;;;;5013421;28;20311;-62
2022/05/23 02:06:21;;;;;;;9.07;3.10;;;;;;;;;;5024310;28;20486;-62
2022/05/23 02:08:46;;;;;;;7.72;2.28;;;;;;;;;;5024111;28;20674;-62
2022/05/23 02:11:12;;;;;;;6.03;2.15;;;;;;;;;;5023446;28;20212;-62
2022/05/23 02:13:38;;;;;;;6.55;2.53;;;;;;;;;;5017203;28;20594;-62
2022/05/23 02:16:03;;;;;;;6.50;2.20;;;;;;;;;;5017190;28;20471;-62
2022/05/23 02:18:29;;;;;;;6.68;2.47;;;;;;;;;;5016799;28;20224;-62
2022/05/23 02:20:54;;;;;;;5.53;2.40;;;;;;;;;;5014719;28;20285;-62
2022/05/23 02:23:19;;;;;;;7.35;2.45;;;;;;;;;;5005335;28;20247;-62
2022/05/23 02:25:45;;;;;;;9.43;3.13;;;;;;;;;;5024701;28;20228;-62
2022/05/23 02:28:11;;;;;;;10.07;2.58;;;;;;;;;;5022463;28;20765;-62
2022/05/23 02:30:36;;;;;;;10.05;3.03;;;;;;;;;;5023859;28;20231;-62
2022/05/23 02:33:01;;;;;;;9.45;2.78;;;;;;;;;;5022900;28;20220;-62
2022/05/23 02:35:27;;;;;;;8.43;2.90;;;;;;;;;;5019069;28;20310;-62
2022/05/23 02:37:52;;;;;;;8.20;2.53;;;;;;;;;;5015868;28;20235;-61
2022/05/23 02:40:17;;;;;;;5.53;1.92;;;;;;;;;;5015207;28;20223;-61
2022/05/23 02:42:43;;;;;;;6.57;1.85;;;;;;;;;;5018287;28;20247;-61
2022/05/23 02:45:08;;;;;;;5.88;1.92;;;;;;;;;;5023239;28;20342;-62
2022/05/23 02:47:34;;;;;;;6.80;2.42;;;;;;;;;;5023290;28;20223;-62
2022/05/23 02:49:59;;;;;;;6.32;1.92;;;;;;;;;;5022319;28;20551;-62
2022/05/23 02:52:24;;;;;;;5.57;1.90;;;;;;;;;;5022210;28;20659;-62
2022/05/23 02:54:50;;;;;;;4.93;2.10;;;;;;;;;;5023652;28;20471;-61
2022/05/23 02:57:15;;;;;;;4.75;2.13;;;;;;;;;;5020636;28;20231;-62
2022/05/23 02:59:40;;;;;;;6.97;2.33;;;;;;;;;;5015888;28;20224;-61
2022/05/23 03:04:49;;;;;;;9.68;2.60;;;;;;;;;;5028913;28;20242;-62
2022/05/23 03:07:14;;;;;;;6.40;2.38;;;;;;;;;;5022891;28;20219;-62
2022/05/23 03:09:40;;;;;;;8.15;2.60;;;;;;;;;;5022350;28;20784;-62
2022/05/23 03:12:05;;;;;;;7.68;2.85;;;;;;;;;;5022150;28;20348;-62
2022/05/23 03:14:31;;;;;;;6.88;2.58;;;;;;;;;;5022751;28;20220;-62
2022/05/23 03:17:00;;;;;;;7.07;2.40;;;;;;;;;;5029634;28;20311;-62
2022/05/23 03:19:25;;;;;;;7.90;2.47;;;;;;;;;;5041504;28;20279;-62
2022/05/23 03:27:18;;;;;;;8.20;2.55;;;;;;;;;;5015912;28;20234;-61
2022/05/23 03:29:44;;;;;;;7.68;2.40;;;;;;;;;;5022004;28;20843;-61
2022/05/23 03:32:09;;;;;;;7.40;2.60;;;;;;;;;;5021301;28;20262;-62
2022/05/23 03:34:34;;;;;;;5.63;2.13;;;;;;;;;;5022945;28;20641;-62
2022/05/23 03:37:00;;;;;;;5.85;2.47;;;;;;;;;;5023365;28;20223;-62
2022/05/23 03:39:25;;;;;;;5.93;2.45;;;;;;;;;;5021580;28;20613;-62
2022/05/23 03:41:52;;;;;;;5.28;2.33;;;;;;;;;;5022179;28;20220;-62
2022/05/23 03:44:18;;;;;;;7.80;2.50;;;;;;;;;;5015022;28;20218;-62
2022/05/23 03:46:43;;;;;;;6.95;2.80;;;;;;;;;;5014222;28;20719;-62
2022/05/23 03:49:08;;;;;;;7.95;2.80;;;;;;;;;;5013712;28;20216;-62
2022/05/23 03:51:34;;;;;;;8.30;2.85;;;;;;;;;;5020829;28;20232;-62
2022/05/23 03:53:59;;;;;;;9.45;3.00;;;;;;;;;;5022341;28;20666;-62
2022/05/23 03:56:25;;;;;;;5.90;2.60;;;;;;;;;;5021105;28;20207;-62
2022/05/23 03:58:50;;;;;;;5.65;2.65;;;;;;;;;;5021578;28;20228;-61
2022/05/23 04:01:16;;;;;;;7.57;2.95;;;;;;;;;;5021246;28;20265;-62
2022/05/23 04:03:42;;;;;;;7.30;3.00;;;;;;;;;;5020766;28;20235;-62
2022/05/23 04:06:07;;;;;;;7.57;3.00;;;;;;;;;;5017190;28;20310;-62
2022/05/23 04:08:32;;;;;;;10.48;3.38;;;;;;;;;;4996856;28;20215;-62
2022/05/23 04:10:58;;;;;;;6.72;3.05;;;;;;;;;;5033255;28;20210;-62
2022/05/23 04:13:23;;;;;;;7.43;3.05;;;;;;;;;;5036238;28;20222;-62
2022/05/23 04:15:50;;;;;;;5.07;2.47;;;;;;;;;;5027459;28;20238;-62
2022/05/23 04:18:16;;;;;;;6.88;2.30;;;;;;;;;;5020941;28;20228;-62
2022/05/23 04:20:41;;;;;;;7.90;2.58;;;;;;;;;;5021473;28;20238;-62
2022/05/23 04:23:12;;;;;;;8.65;3.10;;;;;;;;;;5021979;28;20718;-62
2022/05/23 04:25:39;;;;;;;6.93;2.78;;;;;;;;;;5021918;28;20259;-62
2022/05/23 04:28:04;;;;;;;6.97;2.38;;;;;;;;;;5017925;28;20278;-62
2022/05/23 04:30:29;;;;;;;4.63;2.80;;;;;;;;;;5014702;28;20216;-62
2022/05/23 04:35:38;;;;;;;7.03;2.78;;;;;;;;;;5021224;28;20265;-62
2022/05/23 04:38:04;;;;;;;9.57;2.97;;;;;;;;;;5022165;28;20231;-62
2022/05/23 04:40:29;;;;;;;7.82;2.83;;;;;;;;;;5021637;28;20230;-62
2022/05/23 04:42:54;;;;;;;7.88;3.10;;;;;;;;;;5020625;28;20207;-62
2022/05/23 04:45:20;;;;;;;6.85;3.13;;;;;;;;;;5020913;28;21161;-62
2022/05/23 04:50:29;;;;;;;7.55;3.42;;;;;;;;;;5020012;28;20301;-62
2022/05/23 04:52:56;;;;;;;8.10;3.38;;;;;;;;;;5014592;28;20307;-62
2022/05/23 04:55:21;;;;;;;6.43;3.47;;;;;;;;;;5014287;28;20569;-61
2022/05/23 04:57:46;;;;;;;10.70;4.43;;;;;;;;;;5013885;28;20433;-63
2022/05/23 05:00:13;;;;;;;9.02;3.72;;;;;;;;;;5028120;28;20683;-61
2022/05/23 05:02:39;;;;;;;10.70;4.00;;;;;;;;;;5038770;28;20918;-60
2022/05/23 05:05:04;;;;;;;6.60;3.80;;;;;;;;;;5040150;28;20231;-61
2022/05/23 05:07:30;;;;;;;9.70;4.07;;;;;;;;;;5022358;28;20215;-61
2022/05/23 05:09:55;;;;;;;7.03;3.78;;;;;;;;;;5021500;28;20274;-62
2022/05/23 05:12:20;;;;;;;8.48;3.92;;;;;;;;;;5020851;28;20216;-61
2022/05/23 05:14:46;;;;;;;7.10;3.83;;;;;;;;;;5015327;28;20771;-61
2022/05/23 05:17:11;;;;;;;8.00;4.05;;;;;;;;;;5017196;28;20239;-61
2022/05/23 05:19:36;;;;;;;10.10;4.80;;;;;;;;;;5030480;28;20785;-77
2022/05/23 05:22:03;;;;;;;9.15;4.30;;;;;;;;;;5026985;28;20215;-76
2022/05/23 05:24:28;;;;;;;9.75;4.03;;;;;;;;;;5043361;28;20203;-81
2022/05/23 05:26:54;;;;;;;10.02;4.57;;;;;;;;;;5036949;28;20270;-83
2022/05/23 05:29:19;;;;;;;8.57;4.38;;;;;;;;;;5024036;28;20299;-79
2022/05/23 05:31:53;;;;;;;10.15;4.43;;;;;;;;;;5024257;28;20254;-79
2022/05/23 05:34:20;;;;;;;8.82;4.40;;;;;;;;;;5009062;28;20217;-78
2022/05/23 05:36:46;;;;;;;8.75;4.93;;;;;;;;;;5020138;28;20735;-77
2022/05/23 05:39:11;;;;;;;8.90;4.47;;;;;;;;;;5021775;28;20557;-81
2022/05/23 05:41:38;;;;;;;10.70;4.30;;;;;;;;;;5016494;28;20219;-73
2022/05/23 05:44:04;;;;;;;9.10;4.90;;;;;;;;;;5020537;28;20204;-75
2022/05/23 05:46:30;;;;;;;9.23;5.25;;;;;;;;;;5024400;28;20216;-78
2022/05/23 05:48:56;;;;;;;10.13;5.35;;;;;;;;;;5010176;28;20227;-77
2022/05/23 05:51:21;;;;;;;8.48;5.90;;;;;;;;;;5005707;28;20691;-78
2022/05/23 05:53:47;;;;;;;8.27;4.70;;;;;;;;;;5007513;28;20219;-76
2022/05/23 05:56:12;;;;;;;7.63;5.25;;;;;;;;;;5007227;28;20223;-81
2022/05/23 05:58:37;;;;;;;8.25;4.95;;;;;;;;;;5023588;28;20308;-72
2022/05/23 06:01:03;;;;;;;8.57;5.30;;;;;;;;;;4998944;28;20222;-84
2022/05/23 06:03:28;;;;;;;10.15;5.88;;;;;;;;;;5011469;28;20223;-79
2022/05/23 06:11:26;;;;;;;10.35;5.35;;;;;;;;;;5043070;28;20423;-75
2022/05/23 06:13:52;;;;;;;10.38;5.50;;;;;;;;;;5023155;28;20274;-78
2022/05/23 06:16:18;;;;;;;9.10;5.28;;;;;;;;;;5024869;28;20678;-78
2022/05/23 06:18:44;;;;;;;8.95;5.72;;;;;;;;;;5032421;28;20694;-74
2022/05/23 06:21:09;;;;;;;8.95;5.22;;;;;;;;;;5020746;28;20230;-76
2022/05/23 06:23:35;;;;;;;8.20;4.90;;;;;;;;;;5016556;28;20216;-76
2022/05/23 06:26:01;;;;;;;9.38;5.45;;;;;;;;;;5015691;28;20219;-68
2022/05/23 06:28:26;;;;;;;8.68;5.63;;;;;;;;;;5026782;28;20266;-74
2022/05/23 06:30:51;;;;;;;11.18;6.25;;;;;;;;;;5024359;28;20859;-75
2022/05/23 06:33:18;;;;;;;12.05;5.95;;;;;;;;;;5023179;28;20223;-75
2022/05/23 06:35:43;;;;;;;11.60;6.40;;;;;;;;;;5026917;28;20230;-77
2022/05/23 06:38:08;;;;;;;11.73;5.85;;;;;;;;;;5023240;28;20215;-78
2022/05/23 06:40:34;;;;;;;11.93;6.20;;;;;;;;;;5022702;28;20341;-74
2022/05/23 06:43:01;;;;;;;10.13;6.32;;;;;;;;;;5023592;28;20283;-77
2022/05/23 06:45:26;;;;;;;9.82;6.15;;;;;;;;;;5021742;28;20226;-77
2022/05/23 06:47:52;;;;;;;10.60;5.85;;;;;;;;;;4996851;28;20783;-78
2022/05/23 06:50:17;;;;;;;11.25;6.43;;;;;;;;;;5017498;28;20224;-80
2022/05/23 06:52:42;;;;;;;9.15;6.10;;;;;;;;;;5027771;28;20220;-85
2022/05/23 06:55:08;;;;;;;11.23;6.03;;;;;;;;;;5034815;28;20587;-83
2022/05/23 06:57:33;;;;;;;13.27;6.68;;;;;;;;;;5033554;28;20598;-83
2022/05/23 06:59:58;;;;;;;9.13;6.05;;;;;;;;;;5027333;28;20247;-84
2022/05/23 07:02:24;;;;;;;10.40;6.07;;;;;;;;;;5038591;28;20207;-82
2022/05/23 07:13:00;;;;;;;11.27;6.30;;;;;;;;;;5051842;28;20576;-73
2022/05/23 07:15:27;;;;;;;9.65;5.93;;;;;;;;;;5051728;28;20207;-84
2022/05/23 07:17:53;;;;;;;9.07;6.03;;;;;;;;;;5050293;28;20229;-81
2022/05/23 07:20:18;;;;;;;11.93;6.10;;;;;;;;;;5051677;28;20237;-82
2022/05/23 07:22:43;;;;;;;11.15;6.18;;;;;;;;;;5051541;28;20234;-79
2022/05/23 07:25:09;;;;;;;8.75;5.80;;;;;;;;;;5051599;28;20694;-79
2022/05/23 07:27:34;;;;;;;10.95;5.85;;;;;;;;;;5034051;28;20268;-80
2022/05/23 07:29:59;;;;;;;10.43;5.70;;;;;;;;;;5053422;28;20272;-77
2022/05/23 07:32:25;;;;;;;11.30;5.63;;;;;;;;;;5050925;28;20647;-82
2022/05/23 07:34:50;;;;;;;10.60;5.88;;;;;;;;;;5033874;28;20207;-82
2022/05/23 07:37:16;;;;;;;10.75;5.82;;;;;;;;;;5050497;28;20313;-83
2022/05/23 07:39:42;;;;;;;8.73;5.25;;;;;;;;;;5050940;28;20214;-83
2022/05/23 07:42:07;;;;;;;9.43;5.22;;;;;;;;;;5051074;28;20226;-80
2022/05/23 07:44:34;;;;;;;10.82;6.03;;;;;;;;;;5050319;28;20268;-79
2022/05/23 07:46:59;;;;;;;9.52;5.13;;;;;;;;;;5033646;28;20257;-80
2022/05/23 07:49:25;;;;;;;9.50;5.43;;;;;;;;;;5054374;28;20580;-82
2022/05/23 07:51:50;;;;;;;11.18;5.80;;;;;;;;;;5050961;28;20428;-86
2022/05/23 08:02:42;;;;;;;9.93;4.88;;;;;;;;;;5044344;28;20288;-81
2022/05/23 08:05:08;;;;;;;11.43;5.32;;;;;;;;;;5046121;28;20650;-82
2022/05/23 08:07:33;;;;;;;11.85;5.38;;;;;;;;;;5043159;28;20215;-86
2022/05/23 08:10:00;;;;;;;9.88;5.05;;;;;;;;;;5043044;28;20631;-78
2022/05/23 08:12:27;;;;;;;13.07;5.68;;;;;;;;;;5035649;28;20261;-80
2022/05/23 08:14:52;;;;;;;10.52;4.97;;;;;;;;;;5031568;28;20235;-85
2022/05/23 08:17:18;;;;;;;9.00;4.43;;;;;;;;;;5034702;28;20702;-78
2022/05/23 08:19:43;;;;;;;8.40;4.38;;;;;;;;;;5049562;28;20219;-82
2022/05/23 08:22:09;;;;;;;8.95;4.93;;;;;;;;;;5050444;28;20211;-76
2022/05/23 08:24:34;;;;;;;8.10;4.50;;;;;;;;;;5050815;28;20270;-82
2022/05/23 08:27:00;;;;;;;7.30;3.97;;;;;;;;;;5050281;28;20694;-83
2022/05/23 08:29:25;;;;;;;10.27;4.43;;;;;;;;;;5052738;28;20215;-80
2022/05/23 08:31:51;;;;;;;10.43;4.57;;;;;;;;;;5051055;28;20218;-81
2022/05/23 08:34:16;;;;;;;7.90;4.60;;;;;;;;;;5049442;28;20215;-80
2022/05/23 08:36:41;;;;;;;9.65;4.50;;;;;;;;;;5050674;28;20693;-84
2022/05/23 08:39:07;;;;;;;8.02;3.95;;;;;;;;;;5051363;28;20695;-79
2022/05/23 08:41:34;;;;;;;8.90;4.28;;;;;;;;;;5050036;28;20219;-80
2022/05/23 08:44:10;;;;;;;9.40;4.07;;;;;;;;;;5023931;28;20215;-76
2022/05/23 08:46:40;;;;;;;6.60;3.70;;;;;;;;;;5050733;28;20393;-77
2022/05/23 08:49:06;;;;;;;9.38;3.90;;;;;;;;;;5032180;28;20199;-71
2022/05/23 08:51:37;;;;;;;6.88;3.70;;;;;;;;;;5054273;28;20268;-77
2022/05/23 08:54:09;;;;;;;10.23;4.15;;;;;;;;;;5053310;28;20288;-71
2022/05/23 08:56:37;;;;;;;7.25;3.60;;;;;;;;;;5037846;28;20694;-77
2022/05/23 08:59:03;;;;;;;10.27;3.67;;;;;;;;;;5047382;28;20231;-59
2022/05/23 09:01:43;;;;;;;6.75;3.55;;;;;;;;;;5053367;28;20233;-58
2022/05/23 09:04:13;;;;;;;7.50;3.83;;;;;;;;;;5046683;28;20227;-60
2022/05/23 09:06:42;;;;;;;8.35;3.30;;;;;;;;;;5036933;28;20294;-60
2022/05/23 09:09:08;;;;;;;9.25;3.00;;;;;;;;;;5053168;28;20218;-60
2022/05/23 09:11:35;;;;;;;8.75;3.10;;;;;;;;;;5054092;28;20219;-61
2022/05/23 09:14:00;;;;;;;8.10;2.97;;;;;;;;;;5021594;28;20291;-61
2022/05/23 09:16:27;;;;;;;5.90;2.90;;;;;;;;;;5046741;28;20349;-61
2022/05/23 09:18:55;;;;;;;8.85;3.10;;;;;;;;;;5036061;28;20231;-60
2022/05/23 09:21:21;;;;;;;7.13;3.20;;;;;;;;;;5057273;28;20280;-60
2022/05/23 09:23:47;;;;;;;7.80;3.15;;;;;;;;;;5053458;28;20218;-60
2022/05/23 09:26:20;;;;;;;8.23;3.75;;;;;;;;;;5054028;28;20207;-61
2022/05/23 09:28:45;;;;;;;6.15;3.55;;;;;;;;;;5053627;28;20272;-60
2022/05/23 09:31:18;;;;;;;10.90;3.80;;;;;;;;;;5054514;28;20298;-61
2022/05/23 09:33:45;;;;;;;8.07;3.38;;;;;;;;;;5035701;28;20210;-61
2022/05/23 09:36:13;;;;;;;10.07;3.20;;;;;;;;;;5053437;28;20237;-61
2022/05/23 09:38:46;;;;;;;7.70;3.53;;;;;;;;;;5036244;28;20314;-61
2022/05/23 09:41:27;;;;;;;8.32;3.45;;;;;;;;;;5047030;28;20210;-60
2022/05/23 09:49:21;;;;;;;9.68;4.32;;;;;;;;;;5038157;28;20591;-60
2022/05/23 09:51:51;;;;;;;9.68;4.20;;;;;;;;;;5053529;28;20681;-61
2022/05/23 09:54:18;;;;;;;8.25;4.13;;;;;;;;;;5053056;28;20211;-61
2022/05/23 09:56:44;;;;;;;10.77;4.10;;;;;;;;;;5032548;28;20231;-60
2022/05/23 09:59:20;;;;;;;8.63;4.30;;;;;;;;;;5027709;28;20582;-61
2022/05/23 10:01:45;;;;;;;7.00;4.22;;;;;;;;;;5033989;28;20290;-60
2022/05/23 10:04:15;;;;;;;6.68;3.88;;;;;;;;;;5052796;28;20266;-61
2022/05/23 10:06:42;;;;;;;8.02;4.13;;;;;;;;;;5052692;28;20207;-61
2022/05/23 10:09:08;;;;;;;8.48;4.78;;;;;;;;;;5052723;28;20298;-61
2022/05/23 10:11:34;;;;;;;8.05;4.75;;;;;;;;;;5053616;28;20365;-60
2022/05/23 10:14:00;;;;;;;8.73;4.20;;;;;;;;;;5038943;28;20698;-61
2022/05/23 10:16:26;;;;;;;9.40;4.00;;;;;;;;;;5053299;28;20203;-60
2022/05/23 10:18:53;;;;;;;8.00;4.40;;;;;;;;;;5051963;28;20312;-60
2022/05/23 10:21:19;;;;;;;7.05;3.90;;;;;;;;;;5019244;28;20211;-60
2022/05/23 10:23:57;;;;;;;8.43;3.90;;;;;;;;;;5052945;28;20203;-60
2022/05/23 10:26:23;;;;;;;9.07;4.10;;;;;;;;;;5052064;28;20217;-60
2022/05/23 10:28:53;;;;;;;8.32;3.75;;;;;;;;;;5052983;28;20230;-61
2022/05/23 10:31:21;;;;;;;10.57;4.13;;;;;;;;;;5035753;28;20230;-60
2022/05/23 10:33:48;;;;;;;8.05;4.13;;;;;;;;;;5034236;28;20678;-61
2022/05/23 10:36:14;;;;;;;9.50;4.53;;;;;;;;;;5052145;28;20207;-61
2022/05/23 10:44:12;;;;;;;10.50;4.13;;;;;;;;;;5051731;28;20304;-60
2022/05/23 10:46:37;;;;;;;7.45;4.10;;;;;;;;;;5034206;28;20200;-60
2022/05/23 10:49:21;;;;;;;10.43;4.60;;;;;;;;;;5051984;28;20219;-60
2022/05/23 10:51:55;;;;;;;9.27;4.10;;;;;;;;;;5034747;28;20288;-60
2022/05/23 10:54:21;;;;;;;10.40;4.35;;;;;;;;;;5029568;28;20222;-60
2022/05/23 10:56:46;;;;;;;10.00;4.45;;;;;;;;;;5052285;28;20215;-60
2022/05/23 10:59:11;;;;;;;11.50;4.40;;;;;;;;;;5051410;28;20223;-60
2022/05/23 11:01:44;;;;;;;9.15;3.95;;;;;;;;;;5051570;28;20215;-60
2022/05/23 11:04:14;;;;;;;9.50;4.75;;;;;;;;;;5053630;28;20658;-60
2022/05/23 11:06:53;;;;;;;9.27;4.40;;;;;;;;;;5052387;28;20269;-59
2022/05/23 11:09:24;;;;;;;9.45;4.40;;;;;;;;;;5032353;28;20222;-60
2022/05/23 11:11:56;;;;;;;8.10;4.55;;;;;;;;;;5045549;28;20253;-60
2022/05/23 11:14:26;;;;;;;8.93;4.60;;;;;;;;;;5033380;28;20223;-60
2022/05/23 11:16:55;;;;;;;10.40;4.30;;;;;;;;;;5033819;28;20700;-60
2022/05/23 11:19:32;;;;;;;9.05;4.63;;;;;;;;;;5033671;28;20681;-60
2022/05/23 11:21:58;;;;;;;10.80;4.68;;;;;;;;;;5044699;28;20293;-60
2022/05/23 11:24:44;;;;;;;9.82;5.15;;;;;;;;;;5042328;28;20219;-60
2022/05/23 11:35:33;;;;;;;12.30;5.47;;;;;;;;;;5036364;28;20639;-60
2022/05/23 11:38:01;;;;;;;9.10;5.05;;;;;;;;;;5050985;28;20330;-60
2022/05/23 11:40:26;;;;;;;9.57;4.70;;;;;;;;;;5051060;28;20215;-60
2022/05/23 11:42:55;;;;;;;9.57;4.65;;;;;;;;;;5050071;28;20226;-60
2022/05/23 11:48:29;;;;;;;8.80;4.47;;;;;;;;;;5051409;28;20214;-60
2022/05/23 11:50:54;;;;;;;11.55;5.40;;;;;;;;;;5050617;28;20214;-60
2022/05/23 11:53:23;;;;;;;14.88;5.28;;;;;;;;;;5050438;28;20273;-60
2022/05/23 11:55:55;;;;;;;8.75;3.92;;;;;;;;;;5033740;28;20243;-60
2022/05/23 11:58:37;;;;;;;9.48;3.20;;;;;;;;;;5050151;28;20731;-60
2022/05/23 12:01:11;;;;;;;8.88;4.20;;;;;;;;;;5042576;28;20216;-60
2022/05/23 12:03:51;;;;;;;9.60;3.35;;;;;;;;;;5044521;28;20226;-59
2022/05/23 12:06:33;;;;;;;7.65;2.60;;;;;;;;;;5037392;28;20222;-60
2022/05/23 12:09:00;;;;;;;7.43;2.33;;;;;;;;;;5051210;28;20218;-60
2022/05/23 12:11:26;;;;;;;8.43;2.60;;;;;;;;;;5049905;28;20226;-60
2022/05/23 12:13:51;;;;;;;8.35;2.45;;;;;;;;;;5052622;28;20211;-60
2022/05/23 12:16:26;;;;;;;5.72;2.30;;;;;;;;;;5043923;28;20211;-60
2022/05/23 12:19:03;;;;;;;7.53;2.20;;;;;;;;;;5050110;28;20748;-60
2022/05/23 12:21:34;;;;;;;4.93;2.00;;;;;;;;;;5033176;28;20237;-60
2022/05/23 12:24:09;;;;;;;9.10;2.40;;;;;;;;;;5033650;28;20622;-60
2022/05/23 12:26:35;;;;;;;5.95;2.45;;;;;;;;;;5056392;28;20237;-60
2022/05/23 12:29:00;;;;;;;8.32;2.40;;;;;;;;;;5039749;28;20487;-60
2022/05/23 12:31:27;;;;;;;8.57;2.25;;;;;;;;;;5045526;28;20670;-60
2022/05/23 12:34:01;;;;;;;8.82;2.40;;;;;;;;;;5056204;28;20218;-60
2022/05/23 12:36:27;;;;;;;4.50;2.05;;;;;;;;;;5057489;28;20205;-60
2022/05/23 12:38:53;;;;;;;6.93;2.15;;;;;;;;;;5057280;28;20227;-60
2022/05/23 12:41:19;;;;;;;7.45;2.55;;;;;;;;;;5056168;28;20215;-60
2022/05/23 12:43:50;;;;;;;10.65;2.70;;;;;;;;;;5057057;28;20731;-60
2022/05/23 12:46:22;;;;;;;8.68;2.20;;;;;;;;;;5038703;28;20295;-61
2022/05/23 12:49:08;;;;;;;5.88;2.53;;;;;;;;;;5039725;28;20203;-60
2022/05/23 12:51:37;;;;;;;7.18;2.50;;;;;;;;;;5039387;28;20217;-60
2022/05/23 12:54:13;;;;;;;8.75;2.75;;;;;;;;;;5037648;28;20244;-61
2022/05/23 12:56:57;;;;;;;8.60;2.50;;;;;;;;;;5057460;28;20235;-60
2022/05/23 12:59:25;;;;;;;10.02;2.25;;;;;;;;;;5057089;28;20284;-60
2022/05/23 13:01:53;;;;;;;7.38;2.60;;;;;;;;;;5041475;28;20222;-60
2022/05/23 13:04:21;;;;;;;6.03;2.50;;;;;;;;;;5052242;28;20318;-60
2022/05/23 13:06:51;;;;;;;9.35;2.40;;;;;;;;;;5039407;28;20215;-60
2022/05/23 13:09:19;;;;;;;5.28;2.30;;;;;;;;;;5056122;28;20294;-60
2022/05/23 13:11:46;;;;;;;7.13;2.85;;;;;;;;;;5039310;28;20306;-60
2022/05/23 13:14:12;;;;;;;7.25;2.80;;;;;;;;;;5054811;28;20276;-60
2022/05/23 13:16:38;;;;;;;7.63;2.65;;;;;;;;;;5056789;28;20219;-60
2022/05/23 13:22:05;;;;;;;6.22;2.45;;;;;;;;;;5056706;28;20269;-60
2022/05/23 13:24:49;;;;;;;6.25;2.40;;;;;;;;;;5056755;28;20221;-60
2022/05/23 13:27:18;;;;;;;7.18;2.55;;;;;;;;;;5041364;28;20239;-60
2022/05/23 13:29:44;;;;;;;6.72;2.80;;;;;;;;;;5056397;28;20215;-60
2022/05/23 13:32:11;;;;;;;6.05;2.20;;;;;;;;;;5054741;28;20679;-60
2022/05/23 13:34:37;;;;;;;6.78;2.10;;;;;;;;;;5048690;28;20273;-60
2022/05/23 13:37:03;;;;;;;7.60;2.30;;;;;;;;;;5049983;28;20223;-60
2022/05/23 13:39:29;;;;;;;7.80;2.70;;;;;;;;;;5053248;28;20203;-60
2022/05/23 13:41:54;;;;;;;8.60;2.60;;;;;;;;;;5053496;28;20481;-60
2022/05/23 13:44:20;;;;;;;7.88;2.80;;;;;;;;;;5051867;28;20211;-60
2022/05/23 13:46:46;;;;;;;7.53;2.33;;;;;;;;;;5054063;28;20257;-60
2022/05/23 13:49:16;;;;;;;6.63;2.28;;;;;;;;;;5035655;28;20211;-60
2022/05/23 13:51:43;;;;;;;10.07;2.78;;;;;;;;;;5035346;28;20222;-60
2022/05/23 13:54:12;;;;;;;8.43;3.03;;;;;;;;;;5054238;28;20217;-60
2022/05/23 13:56:38;;;;;;;7.32;2.45;;;;;;;;;;5052773;28;20222;-60
2022/05/23 13:59:04;;;;;;;5.07;1.90;;;;;;;;;;5053061;28;20272;-60
2022/05/23 14:01:32;;;;;;;5.13;1.90;;;;;;;;;;5053783;28;20215;-60
2022/05/23 14:04:00;;;;;;;5.50;2.05;;;;;;;;;;5055813;28;20227;-60
2022/05/23 14:06:28;;;;;;;7.10;2.42;;;;;;;;;;5053145;28;20207;-60
2022/05/23 14:08:55;;;;;;;8.02;2.30;;;;;;;;;;5044545;28;20742;-60
2022/05/23 14:11:29;;;;;;;8.02;2.40;;;;;;;;;;5031872;28;20212;-60
2022/05/23 14:13:57;;;;;;;5.60;2.13;;;;;;;;;;5034109;28;20222;-60
2022/05/23 14:16:22;;;;;;;6.97;2.55;;;;;;;;;;5052979;28;20220;-60
2022/05/23 14:19:00;;;;;;;7.78;2.67;;;;;;;;;;5034255;28;20230;-60
2022/05/23 14:21:30;;;;;;;6.95;3.05;;;;;;;;;;5034517;28;20577;-60
2022/05/23 14:23:56;;;;;;;5.47;2.70;;;;;;;;;;5037648;28;20686;-60
2022/05/23 14:26:21;;;;;;;8.55;3.00;;;;;;;;;;5052016;28;20215;-60
2022/05/23 14:28:48;;;;;;;7.72;2.50;;;;;;;;;;5052988;28;20264;-60
2022/05/23 14:31:25;;;;;;;6.85;2.60;;;;;;;;;;5052500;28;20672;-61
2022/05/23 14:33:55;;;;;;;8.13;3.10;;;;;;;;;;5036286;28;20210;-60
2022/05/23 14:36:21;;;;;;;7.45;3.38;;;;;;;;;;5018086;28;20226;-60
2022/05/23 14:38:47;;;;;;;7.93;3.45;;;;;;;;;;5051508;28;20698;-60
2022/05/23 14:41:15;;;;;;;9.65;3.33;;;;;;;;;;5052318;28;20254;-60
2022/05/23 14:43:40;;;;;;;9.32;3.70;;;;;;;;;;5032525;28;20206;-60
2022/05/23 14:46:15;;;;;;;9.88;3.70;;;;;;;;;;5051495;28;20227;-61
2022/05/23 14:48:50;;;;;;;9.32;3.47;;;;;;;;;;5051985;28;20221;-60
2022/05/23 14:51:17;;;;;;;8.00;3.17;;;;;;;;;;5052065;28;20219;-61
2022/05/23 14:56:37;;;;;;;8.13;3.30;;;;;;;;;;5040386;28;20580;-61
2022/05/23 15:01:55;;;;;;;11.60;3.53;;;;;;;;;;5049499;28;20214;-60
2022/05/23 15:04:25;;;;;;;11.57;4.30;;;;;;;;;;5038543;28;20230;-60
2022/05/23 15:06:52;;;;;;;7.22;3.58;;;;;;;;;;5033488;28;20293;-60
2022/05/23 15:09:17;;;;;;;9.75;3.95;;;;;;;;;;5013766;28;20537;-60
2022/05/23 15:11:43;;;;;;;11.00;4.38;;;;;;;;;;5025844;28;20219;-60
2022/05/23 15:14:09;;;;;;;9.45;3.80;;;;;;;;;;5024759;28;20282;-60
2022/05/23 15:16:36;;;;;;;7.32;4.00;;;;;;;;;;5008871;28;20544;-60
2022/05/23 15:19:02;;;;;;;7.80;3.30;;;;;;;;;;5026798;28;20793;-61
2022/05/23 15:21:27;;;;;;;10.63;3.60;;;;;;;;;;5025680;28;20212;-60
2022/05/23 15:23:53;;;;;;;7.57;3.13;;;;;;;;;;5025396;28;20669;-60
2022/05/23 15:26:19;;;;;;;10.02;4.15;;;;;;;;;;5020301;28;20220;-60
2022/05/23 15:28:45;;;;;;;7.95;4.10;;;;;;;;;;5017572;28;20299;-61
2022/05/23 15:31:11;;;;;;;10.73;4.78;;;;;;;;;;4999820;28;20245;-61
2022/05/23 15:33:36;;;;;;;14.60;5.35;;;;;;;;;;4992559;28;20509;-60
2022/05/23 15:36:02;;;;;;;10.88;5.38;;;;;;;;;;5024736;28;20227;-61
2022/05/23 15:38:27;;;;;;;8.05;5.00;;;;;;;;;;5025412;28;20220;-61
2022/05/23 15:40:54;;;;;;;9.63;5.97;;;;;;;;;;5025612;28;20270;-60
2022/05/23 15:43:19;;;;;;;8.93;5.45;;;;;;;;;;5024444;28;20285;-61
2022/05/23 15:45:46;;;;;;;12.65;6.03;;;;;;;;;;5025681;28;20685;-61
2022/05/23 15:48:11;;;;;;;11.88;6.38;;;;;;;;;;5022275;28;20262;-61
2022/05/23 15:50:38;;;;;;;12.63;5.82;;;;;;;;;;5018018;28;20227;-61
2022/05/23 15:53:06;;;;;;;11.65;5.80;;;;;;;;;;5015287;28;20714;-61
2022/05/23 15:55:31;;;;;;;10.55;5.63;;;;;;;;;;5020562;28;20221;-61